AZA weather

Phoenix-Mesa-Gateway Airport
Phoenix, Arizona, United States

Public forecast

Using degrees Fahrenheit for public forecast. Weather courtesy of forecast.io.

Current aviation weather report (METAR) for Phoenix-Mesa-Gateway Airport

Retrieved 2019/11/13 00:50 UTC (13 minutes ago):

KIWA 130050Z 15007KT 10SM SKC 22/02 A3003

Aviation forecast (TAF) for Phoenix-Mesa-Gateway Airport

Retrieved 2019-11-13 00:36 UTC (27 minutes ago):

TAF KIWA 122333Z 1300/1324 15014KT P6SM FEW250 FM130200 11006KT P6SM FEW250 FM131400 15005KT P6SM SCT220 FM132000 25005KT P6SM SCT200